Time;durP1;ratioP1;P1;durP2;ratioP2;P2;SDS_P1;SDS_P2;PMS_P1;PMS_P2;Temp;Humidity;BMP_temperature;BMP_pressure;BME280_temperature;BME280_humidity;BME280_pressure;Samples;Min_cycle;Max_cycle;Signal;HPM_P1;HPM_P2
2023/03/16 00:01:04;;;;;;;1.92;1.73;;;3.10;1.00;;;;;;5108907;28;20054;-64
2023/03/16 00:03:35;;;;;;;3.20;1.70;;;3.10;1.00;;;;;;5130842;28;20038;-64
2023/03/16 00:06:10;;;;;;;1.63;1.52;;;3.10;1.00;;;;;;5120651;28;20127;-64
2023/03/16 00:08:42;;;;;;;4.03;1.83;;;3.10;1.00;;;;;;5114126;28;20038;-63
2023/03/16 00:11:13;;;;;;;1.90;1.50;;;3.20;1.00;;;;;;5082134;28;20041;-64
2023/03/16 00:13:45;;;;;;;1.63;1.45;;;3.20;1.00;;;;;;5114473;28;20043;-64
2023/03/16 00:16:17;;;;;;;1.52;1.40;;;3.10;1.00;;;;;;5112494;28;20190;-63
2023/03/16 00:18:48;;;;;;;1.80;1.52;;;3.10;1.00;;;;;;5098117;28;20064;-64
2023/03/16 00:21:22;;;;;;;2.38;1.58;;;3.10;1.00;;;;;;5131704;28;20173;-65
2023/03/16 00:23:54;;;;;;;6.00;1.95;;;3.10;1.00;;;;;;5082190;28;20042;-64
2023/03/16 00:26:28;;;;;;;1.65;1.30;;;3.00;1.00;;;;;;5114590;28;20042;-64
2023/03/16 00:29:02;;;;;;;1.20;1.10;;;3.00;1.00;;;;;;5115562;28;20057;-64
2023/03/16 00:31:34;;;;;;;2.08;1.88;;;2.80;1.00;;;;;;5096334;28;20039;-65
2023/03/16 00:34:06;;;;;;;2.33;1.77;;;2.80;1.00;;;;;;5114639;28;20057;-65
2023/03/16 00:36:37;;;;;;;1.95;1.65;;;2.70;1.00;;;;;;5113983;28;20053;-64
2023/03/16 00:39:10;;;;;;;2.35;1.60;;;2.80;1.00;;;;;;5099092;28;20042;-64
2023/03/16 00:41:42;;;;;;;1.90;1.70;;;2.70;1.00;;;;;;5115072;28;20323;-64
2023/03/16 00:44:13;;;;;;;1.58;1.45;;;2.70;1.00;;;;;;5114424;28;20033;-65
2023/03/16 00:46:45;;;;;;;1.77;1.50;;;2.70;1.00;;;;;;5096359;28;20039;-64
2023/03/16 00:49:21;;;;;;;2.65;1.50;;;2.60;1.00;;;;;;5115152;28;20345;-63
2023/03/16 00:51:52;;;;;;;2.55;1.63;;;2.60;1.00;;;;;;5113427;28;20042;-64
2023/03/16 00:54:25;;;;;;;2.55;1.55;;;2.70;1.00;;;;;;5098866;28;20034;-64
2023/03/16 00:57:03;;;;;;;2.00;1.63;;;2.60;1.00;;;;;;5114098;28;20263;-64
2023/03/16 00:59:36;;;;;;;1.83;1.73;;;2.60;1.00;;;;;;5082141;28;20049;-64
2023/03/16 01:02:12;;;;;;;2.58;1.80;;;2.50;1.00;;;;;;5165270;23;20066;-66
2023/03/16 01:04:44;;;;;;;2.00;1.80;;;2.50;1.00;;;;;;5122765;28;20050;-69
2023/03/16 01:07:16;;;;;;;2.85;1.67;;;2.50;1.00;;;;;;5130945;28;20054;-69
2023/03/16 01:09:50;;;;;;;3.83;1.88;;;2.50;1.00;;;;;;5146292;28;20043;-69
2023/03/16 01:12:22;;;;;;;2.05;1.85;;;2.50;1.00;;;;;;5098979;28;20054;-69
2023/03/16 01:14:56;;;;;;;3.22;1.90;;;2.50;1.00;;;;;;5126104;28;20031;-69
2023/03/16 01:17:28;;;;;;;1.98;1.73;;;2.40;1.00;;;;;;5092738;29;20048;-69
2023/03/16 01:20:00;;;;;;;3.67;2.03;;;2.50;1.00;;;;;;5095676;29;20045;-69
2023/03/16 01:22:33;;;;;;;2.92;1.98;;;2.50;1.00;;;;;;5101374;28;20046;-69
2023/03/16 01:25:09;;;;;;;4.47;2.13;;;2.40;1.00;;;;;;5151148;28;20043;-69
2023/03/16 01:27:41;;;;;;;4.78;2.05;;;2.40;1.00;;;;;;5132865;28;20054;-69
2023/03/16 01:30:13;;;;;;;2.97;1.80;;;2.30;1.00;;;;;;5099119;28;20205;-69
2023/03/16 01:32:50;;;;;;;3.05;1.90;;;2.20;1.00;;;;;;5133845;28;20107;-69
2023/03/16 01:35:24;;;;;;;2.20;1.90;;;2.10;1.00;;;;;;5132935;28;20046;-69
2023/03/16 01:38:01;;;;;;;1.55;1.40;;;2.20;1.00;;;;;;5101908;28;20045;-69
2023/03/16 01:40:34;;;;;;;2.10;1.90;;;2.10;1.00;;;;;;5133243;28;20043;-69
2023/03/16 01:43:09;;;;;;;;;;;2.10;1.00;;;;;;5146719;28;20034;-69
2023/03/16 01:46:05;;;;;;;2.80;2.00;;;2.00;1.00;;;;;;5129245;28;20325;-69
2023/03/16 01:49:05;;;;;;;3.25;2.10;;;2.00;1.00;;;;;;5115686;28;20042;-69
2023/03/16 01:51:50;;;;;;;3.42;2.58;;;2.00;1.00;;;;;;5120513;28;20042;-69
2023/03/16 01:54:25;;;;;;;4.95;1.90;;;1.90;1.00;;;;;;5150462;28;20045;-69
2023/03/16 01:57:08;;;;;;;;;;;1.90;1.00;;;;;;5150056;28;20085;-69
2023/03/16 02:00:06;;;;;;;3.13;2.05;;;1.90;1.00;;;;;;5131637;28;20482;-69
2023/03/16 02:02:42;;;;;;;3.70;1.83;;;1.90;1.00;;;;;;5100487;28;20042;-68
2023/03/16 02:05:41;;;;;;;1.90;1.77;;;1.90;1.00;;;;;;5111508;28;20062;-67
2023/03/16 02:08:13;;;;;;;4.10;2.30;;;1.90;1.00;;;;;;5114717;28;20035;-69
2023/03/16 02:10:47;;;;;;;4.10;2.08;;;1.90;1.00;;;;;;5117025;28;20058;-68
2023/03/16 02:13:24;;;;;;;4.32;2.03;;;1.90;1.00;;;;;;5134178;28;20035;-68
2023/03/16 02:16:01;;;;;;;2.85;2.20;;;1.90;1.00;;;;;;5132326;28;20077;-68
2023/03/16 02:18:37;;;;;;;3.72;2.60;;;1.90;1.00;;;;;;5135600;28;20045;-69
2023/03/16 02:21:24;;;;;;;4.55;2.50;;;1.80;1.00;;;;;;5134691;28;20049;-68
2023/03/16 02:23:56;;;;;;;2.65;1.90;;;1.80;1.00;;;;;;5134389;28;20062;-69
2023/03/16 02:26:43;;;;;;;3.47;2.40;;;1.80;1.00;;;;;;5116608;28;20042;-69
2023/03/16 02:29:56;;;;;;;5.30;2.38;;;1.90;1.00;;;;;;5135454;28;20351;-68
2023/03/16 02:32:33;;;;;;;2.60;2.17;;;1.90;1.00;;;;;;5147246;28;20046;-68
2023/03/16 02:35:06;;;;;;;4.50;2.50;;;1.80;1.00;;;;;;5149992;28;20038;-69
2023/03/16 02:37:44;;;;;;;2.57;1.90;;;1.80;1.00;;;;;;5118608;28;20050;-69
2023/03/16 02:40:22;;;;;;;2.35;2.15;;;1.80;1.00;;;;;;5114505;29;20267;-69
2023/03/16 02:43:14;;;;;;;3.05;2.42;;;1.80;1.00;;;;;;5113845;28;20070;-69
2023/03/16 02:45:56;;;;;;;2.30;2.10;;;1.70;1.00;;;;;;5112177;29;20374;-69
2023/03/16 02:49:09;;;;;;;4.32;2.70;;;1.70;1.00;;;;;;5112427;29;20051;-69
2023/03/16 02:51:43;;;;;;;2.60;1.98;;;1.80;1.00;;;;;;5119591;28;20051;-70
2023/03/16 02:54:17;;;;;;;2.33;2.10;;;1.70;1.00;;;;;;5114221;28;20053;-70
2023/03/16 02:56:50;;;;;;;2.83;2.40;;;1.70;1.00;;;;;;5116716;28;20165;-70
2023/03/16 02:59:24;;;;;;;3.15;2.25;;;1.70;1.00;;;;;;5117459;28;20077;-70
2023/03/16 03:02:01;;;;;;;4.32;2.60;;;1.60;1.00;;;;;;5147334;28;20057;-69
2023/03/16 03:04:33;;;;;;;6.55;2.40;;;1.70;1.00;;;;;;5109346;28;20058;-70
2023/03/16 03:07:09;;;;;;;6.18;2.25;;;1.70;1.00;;;;;;5133151;28;20039;-70
2023/03/16 03:09:41;;;;;;;5.78;2.95;;;1.60;1.00;;;;;;5100186;28;20540;-70
2023/03/16 03:12:13;;;;;;;5.15;2.92;;;1.60;1.00;;;;;;5128268;28;20063;-70
2023/03/16 03:14:44;;;;;;;3.10;2.40;;;1.60;1.00;;;;;;5113300;29;20496;-70
2023/03/16 03:17:15;;;;;;;4.55;3.05;;;1.60;1.00;;;;;;5113488;29;20027;-70
2023/03/16 03:19:47;;;;;;;4.22;2.85;;;1.50;1.00;;;;;;5096652;29;20420;-70
2023/03/16 03:22:19;;;;;;;5.60;2.53;;;1.50;1.00;;;;;;5112711;29;20053;-70
2023/03/16 03:24:54;;;;;;;4.25;3.03;;;1.50;1.00;;;;;;5096708;29;20057;-70
2023/03/16 03:27:26;;;;;;;4.07;3.00;;;1.50;1.00;;;;;;5123572;28;20043;-70
2023/03/16 03:30:05;;;;;;;4.63;2.85;;;1.50;1.00;;;;;;5113140;28;20062;-70
2023/03/16 03:32:36;;;;;;;4.78;2.65;;;1.40;1.00;;;;;;5126593;28;20027;-71
2023/03/16 03:35:11;;;;;;;7.88;3.25;;;1.40;1.00;;;;;;5130827;28;20038;-70
2023/03/16 03:37:43;;;;;;;4.13;2.70;;;1.30;1.00;;;;;;5128434;28;20049;-70
2023/03/16 03:40:20;;;;;;;2.55;2.17;;;1.30;1.00;;;;;;5130454;28;20043;-70
2023/03/16 03:42:55;;;;;;;4.53;2.95;;;1.20;1.00;;;;;;5130941;28;20039;-70
2023/03/16 03:45:28;;;;;;;3.75;2.83;;;1.30;1.00;;;;;;5114665;28;20050;-70
2023/03/16 03:48:00;;;;;;;3.28;2.75;;;1.20;1.00;;;;;;5138406;28;20378;-70
2023/03/16 03:50:34;;;;;;;4.80;2.75;;;1.20;1.00;;;;;;5099571;28;20063;-70
2023/03/16 03:53:09;;;;;;;3.13;2.40;;;1.10;1.00;;;;;;5130285;28;20019;-70
2023/03/16 03:55:44;;;;;;;4.43;2.80;;;1.10;1.00;;;;;;5131153;28;20054;-70
2023/03/16 03:58:19;;;;;;;3.63;2.50;;;1.10;1.00;;;;;;5120208;28;20057;-69
2023/03/16 04:00:53;;;;;;;6.47;2.28;;;1.20;1.00;;;;;;5127974;28;20262;-70
2023/03/16 04:03:25;;;;;;;3.40;2.25;;;1.10;1.00;;;;;;5115375;28;20416;-69
2023/03/16 04:06:02;;;;;;;3.28;2.63;;;1.10;1.00;;;;;;5109650;28;20387;-69
2023/03/16 04:08:37;;;;;;;3.33;2.42;;;1.10;1.00;;;;;;5114988;28;20047;-70
2023/03/16 04:11:10;;;;;;;4.82;2.90;;;1.10;1.00;;;;;;5127685;28;20055;-70
2023/03/16 04:13:42;;;;;;;5.22;3.00;;;1.10;1.00;;;;;;5099801;28;20050;-69
2023/03/16 04:16:15;;;;;;;4.07;2.47;;;1.10;1.00;;;;;;5128473;28;20042;-70
2023/03/16 04:18:48;;;;;;;3.88;2.35;;;1.10;1.00;;;;;;5133674;28;20617;-70
2023/03/16 04:21:21;;;;;;;3.97;2.90;;;1.10;1.00;;;;;;5115099;28;20034;-69
2023/03/16 04:23:55;;;;;;;4.93;2.60;;;1.10;1.00;;;;;;5131595;28;20041;-69
2023/03/16 04:26:33;;;;;;;3.22;2.72;;;1.10;1.00;;;;;;5112686;28;20239;-69
2023/03/16 04:29:04;;;;;;;3.17;2.40;;;1.10;1.00;;;;;;5131946;28;20046;-69
2023/03/16 04:31:37;;;;;;;3.67;2.78;;;1.10;1.00;;;;;;5098345;28;20046;-69
2023/03/16 04:34:12;;;;;;;3.42;2.13;;;1.10;1.00;;;;;;5115665;28;20035;-69
2023/03/16 04:36:47;;;;;;;3.63;2.47;;;1.10;1.00;;;;;;5131077;28;20042;-69
2023/03/16 04:39:19;;;;;;;4.65;2.75;;;1.20;1.00;;;;;;5131719;28;20307;-69
2023/03/16 04:41:51;;;;;;;5.15;3.53;;;1.20;1.00;;;;;;5131023;28;20043;-70
2023/03/16 04:44:26;;;;;;;5.63;2.70;;;1.30;1.00;;;;;;5132982;28;20023;-70
2023/03/16 04:47:00;;;;;;;6.20;2.70;;;1.20;1.00;;;;;;5112791;28;20513;-70
2023/03/16 04:49:31;;;;;;;7.60;2.85;;;1.20;1.00;;;;;;5115849;28;20047;-70
2023/03/16 04:52:04;;;;;;;4.05;3.17;;;1.20;1.00;;;;;;5131920;28;20353;-70
2023/03/16 04:54:38;;;;;;;4.03;2.85;;;1.10;1.00;;;;;;5117345;28;20270;-70
2023/03/16 04:57:09;;;;;;;4.38;2.55;;;1.20;1.00;;;;;;5135433;28;20046;-70
2023/03/16 04:59:41;;;;;;;4.88;3.10;;;1.20;1.00;;;;;;5119900;28;20045;-69
2023/03/16 05:02:15;;;;;;;6.05;3.38;;;1.20;1.00;;;;;;5115851;28;20455;-70
2023/03/16 05:04:50;;;;;;;3.70;2.72;;;1.20;1.00;;;;;;5111764;28;20066;-70
2023/03/16 05:07:24;;;;;;;4.70;3.00;;;1.20;1.00;;;;;;5090273;29;20050;-69
2023/03/16 05:09:55;;;;;;;5.57;3.33;;;1.20;1.00;;;;;;5131272;28;20062;-70
2023/03/16 05:12:32;;;;;;;6.22;2.92;;;1.20;1.00;;;;;;5128539;28;20178;-70
2023/03/16 05:15:07;;;;;;;5.03;3.17;;;1.20;1.00;;;;;;5099180;29;20059;-70
2023/03/16 05:17:40;;;;;;;3.47;2.53;;;1.20;1.00;;;;;;5098989;29;20591;-70
2023/03/16 05:20:13;;;;;;;5.28;3.35;;;1.20;1.00;;;;;;5131971;28;20040;-70
2023/03/16 05:22:49;;;;;;;5.50;3.53;;;1.20;1.00;;;;;;5114240;29;20039;-69
2023/03/16 05:25:20;;;;;;;6.45;3.53;;;1.30;1.00;;;;;;5114704;28;20042;-69
2023/03/16 05:27:55;;;;;;;6.03;3.45;;;1.30;1.00;;;;;;5096421;29;20459;-70
2023/03/16 05:30:27;;;;;;;6.85;2.88;;;1.40;1.00;;;;;;5125024;28;20039;-70
2023/03/16 05:32:58;;;;;;;5.60;3.53;;;1.40;1.00;;;;;;5096535;28;20039;-70
2023/03/16 05:35:31;;;;;;;4.72;3.63;;;1.50;1.00;;;;;;5086132;29;20062;-69
2023/03/16 05:38:07;;;;;;;7.53;2.90;;;1.50;1.00;;;;;;5082720;29;20061;-70
2023/03/16 05:40:39;;;;;;;5.63;3.95;;;1.60;1.00;;;;;;5114004;29;20042;-69
2023/03/16 05:43:11;;;;;;;4.03;3.22;;;1.60;1.00;;;;;;5127158;28;20027;-69
2023/03/16 05:45:42;;;;;;;6.53;3.10;;;1.70;1.00;;;;;;5094730;29;20368;-70
2023/03/16 05:48:14;;;;;;;4.32;2.92;;;1.80;1.00;;;;;;5107004;29;20374;-70
2023/03/16 05:50:46;;;;;;;5.00;3.00;;;1.80;1.00;;;;;;5098538;29;20400;-70
2023/03/16 05:53:22;;;;;;;4.30;3.20;;;1.80;1.00;;;;;;5113752;29;20410;-70
2023/03/16 05:55:54;;;;;;;5.82;2.63;;;1.90;1.00;;;;;;5125501;28;20027;-69
2023/03/16 05:58:25;;;;;;;4.97;3.28;;;1.90;1.00;;;;;;5113090;28;20051;-68
2023/03/16 06:01:00;;;;;;;6.60;3.42;;;1.90;1.00;;;;;;5091197;29;20263;-69
2023/03/16 06:03:33;;;;;;;4.75;3.33;;;1.90;1.00;;;;;;5112874;28;20043;-70
2023/03/16 06:06:05;;;;;;;4.82;2.97;;;2.00;1.00;;;;;;5107281;28;20067;-70
2023/03/16 06:08:37;;;;;;;7.85;3.38;;;2.10;1.00;;;;;;5114354;28;20049;-69
2023/03/16 06:11:10;;;;;;;3.85;2.78;;;2.10;1.00;;;;;;5144189;28;20342;-70
2023/03/16 06:13:45;;;;;;;3.42;2.85;;;2.10;1.00;;;;;;5132052;28;20239;-70
2023/03/16 06:16:17;;;;;;;3.88;3.17;;;2.20;1.00;;;;;;5114953;28;20053;-70
2023/03/16 06:18:52;;;;;;;6.55;3.80;;;2.30;1.00;;;;;;5133256;28;20046;-70
2023/03/16 06:21:31;;;;;;;4.53;3.20;;;2.30;1.00;;;;;;5126696;28;20052;-70
2023/03/16 06:24:07;;;;;;;5.75;3.65;;;2.30;1.00;;;;;;5101047;28;20055;-70
2023/03/16 06:26:40;;;;;;;11.77;3.92;;;2.40;1.00;;;;;;5117882;28;20239;-70
2023/03/16 06:29:11;;;;;;;4.70;3.17;;;2.40;1.00;;;;;;5134091;28;20513;-70
2023/03/16 06:31:45;;;;;;;4.03;3.53;;;2.40;1.00;;;;;;5133258;28;20043;-70
2023/03/16 06:34:16;;;;;;;4.55;3.35;;;2.50;1.00;;;;;;5136126;28;20034;-69
2023/03/16 06:36:52;;;;;;;5.13;3.60;;;2.50;1.00;;;;;;5134220;28;20051;-70
2023/03/16 06:39:24;;;;;;;8.40;3.25;;;2.50;1.00;;;;;;5132988;28;20035;-70
2023/03/16 06:41:57;;;;;;;3.28;2.78;;;2.60;1.00;;;;;;5100185;28;20180;-70
2023/03/16 06:44:31;;;;;;;7.07;3.75;;;2.70;1.00;;;;;;5133294;28;20037;-70
2023/03/16 06:47:07;;;;;;;6.00;3.78;;;2.80;99.90;;;;;;5114046;28;20054;-70
2023/03/16 06:49:38;;;;;;;5.80;3.03;;;2.80;99.90;;;;;;5132259;28;20062;-69
2023/03/16 06:52:14;;;;;;;4.72;3.00;;;2.90;99.90;;;;;;5132972;28;20031;-69
2023/03/16 06:54:47;;;;;;;9.57;4.25;;;3.00;99.90;;;;;;5132854;28;20602;-70
2023/03/16 06:57:24;;;;;;;5.90;3.25;;;3.00;99.90;;;;;;5132083;28;20034;-70
2023/03/16 06:59:56;;;;;;;3.70;2.88;;;3.10;99.90;;;;;;5118532;28;20355;-69
2023/03/16 07:02:31;;;;;;;4.93;3.00;;;3.10;99.90;;;;;;5118251;28;20058;-69
2023/03/16 07:05:12;;;;;;;5.25;3.25;;;3.10;99.90;;;;;;5124481;28;20050;-70
2023/03/16 07:07:44;;;;;;;9.10;3.00;;;3.10;99.90;;;;;;5132970;28;20046;-70
2023/03/16 07:10:25;;;;;;;3.90;2.78;;;3.20;99.90;;;;;;5132430;28;20050;-70
2023/03/16 07:12:59;;;;;;;5.97;3.17;;;3.30;99.90;;;;;;5129971;28;20046;-68
2023/03/16 07:15:33;;;;;;;6.85;3.35;;;3.20;99.90;;;;;;5124539;28;20706;-70
2023/03/16 07:18:05;;;;;;;4.60;3.05;;;3.20;99.90;;;;;;5100131;28;20041;-69
2023/03/16 07:20:40;;;;;;;3.15;2.65;;;3.40;99.90;;;;;;5133963;28;20050;-70
2023/03/16 07:23:15;;;;;;;5.03;3.55;;;3.40;99.90;;;;;;5116136;28;20524;-70
2023/03/16 07:25:46;;;;;;;;;;;3.60;99.90;;;;;;5148083;28;20652;-69
2023/03/16 07:28:22;;;;;;;6.72;2.65;;;3.70;99.90;;;;;;5128196;28;19922;-69
2023/03/16 07:30:53;;;;;;;4.82;2.88;;;3.60;99.90;;;;;;5119917;28;20034;-70
2023/03/16 07:33:28;;;;;;;6.75;3.38;;;3.70;99.90;;;;;;5097200;28;20490;-70
2023/03/16 07:36:03;;;;;;;6.00;3.40;;;3.80;99.90;;;;;;5105802;28;20051;-70
2023/03/16 07:38:34;;;;;;;4.85;3.00;;;4.00;99.90;;;;;;5094261;28;20034;-71
2023/03/16 07:41:08;;;;;;;4.40;3.15;;;4.10;99.90;;;;;;5091859;28;20047;-70
2023/03/16 07:43:45;;;;;;;3.95;2.63;;;3.90;1.00;;;;;;5130346;28;20042;-69
2023/03/16 07:46:17;;;;;;;7.13;3.15;;;4.00;99.90;;;;;;5144691;28;20031;-69
2023/03/16 07:48:48;;;;;;;4.45;3.35;;;4.30;1.00;;;;;;5131152;28;20051;-70
2023/03/16 07:51:20;;;;;;;4.07;2.90;;;4.50;1.00;;;;;;5146339;28;20045;-70
2023/03/16 07:53:52;;;;;;;3.45;2.60;;;4.50;1.00;;;;;;5115235;28;20039;-69
2023/03/16 07:56:26;;;;;;;4.75;2.60;;;4.60;1.00;;;;;;5119667;28;20035;-69
2023/03/16 07:58:57;;;;;;;4.10;2.83;;;4.60;1.00;;;;;;5114281;28;20039;-69
2023/03/16 08:01:29;;;;;;;4.25;2.83;;;4.60;1.00;;;;;;5114231;28;20273;-69
2023/03/16 08:04:01;;;;;;;4.10;2.80;;;4.60;1.00;;;;;;5127968;28;20038;-69
2023/03/16 08:06:33;;;;;;;3.17;2.83;;;4.90;1.00;;;;;;5169467;28;20065;-69
2023/03/16 08:09:04;;;;;;;4.03;2.50;;;5.10;1.00;;;;;;5153116;28;20027;-69
2023/03/16 08:11:36;;;;;;;3.78;2.33;;;5.30;1.00;;;;;;5143511;28;20487;-70
2023/03/16 08:14:07;;;;;;;3.35;2.58;;;5.30;1.00;;;;;;5126886;28;20047;-69
2023/03/16 08:16:39;;;;;;;3.58;2.00;;;5.20;1.00;;;;;;5139272;28;20049;-69
2023/03/16 08:19:10;;;;;;;4.70;2.40;;;5.20;1.00;;;;;;5117604;28;20658;-69
2023/03/16 08:21:42;;;;;;;5.55;2.92;;;5.30;1.00;;;;;;5113685;28;20619;-69
2023/03/16 08:24:14;;;;;;;4.45;1.90;;;5.20;1.00;;;;;;5147703;28;20034;-70
2023/03/16 08:26:46;;;;;;;5.22;1.60;;;5.60;1.00;;;;;;5147447;28;20080;-69
2023/03/16 08:29:18;;;;;;;1.77;1.27;;;5.50;1.00;;;;;;5099647;28;20043;-69
2023/03/16 08:31:52;;;;;;;5.10;2.03;;;5.80;1.00;;;;;;5116320;28;20046;-70
2023/03/16 08:34:25;;;;;;;6.13;2.40;;;5.70;1.00;;;;;;5119439;28;20412;-70
2023/03/16 08:36:58;;;;;;;1.98;1.58;;;5.60;1.00;;;;;;5125583;28;20090;-70
2023/03/16 08:39:30;;;;;;;4.78;3.00;;;5.90;1.00;;;;;;5140396;28;20045;-69
2023/03/16 08:42:03;;;;;;;2.75;1.83;;;5.90;1.00;;;;;;5134075;28;20042;-70
2023/03/16 08:44:35;;;;;;;2.67;1.35;;;5.90;1.00;;;;;;5134714;28;20052;-69
2023/03/16 08:47:06;;;;;;;4.47;1.90;;;5.70;1.00;;;;;;5100200;28;20038;-69
2023/03/16 08:49:38;;;;;;;4.65;2.15;;;6.10;1.00;;;;;;5133451;28;20081;-69
2023/03/16 08:52:09;;;;;;;4.35;1.58;;;6.40;1.00;;;;;;5134696;28;20035;-69
2023/03/16 08:54:42;;;;;;;2.53;1.90;;;6.50;1.00;;;;;;5134574;28;20039;-70
2023/03/16 08:57:14;;;;;;;5.07;2.22;;;6.50;1.00;;;;;;5134186;28;20042;-69
2023/03/16 08:59:45;;;;;;;6.85;2.15;;;7.10;1.00;;;;;;5156361;28;20042;-69
2023/03/16 09:02:17;;;;;;;3.53;2.20;;;7.30;1.00;;;;;;5123753;28;20035;-69
2023/03/16 09:04:49;;;;;;;5.30;2.30;;;7.10;1.00;;;;;;5101762;28;20534;-68
2023/03/16 09:07:20;;;;;;;2.85;2.20;;;7.00;1.00;;;;;;5145391;28;20045;-69
2023/03/16 09:09:52;;;;;;;2.10;1.90;;;7.30;1.00;;;;;;5133342;28;20039;-68
2023/03/16 09:12:23;;;;;;;2.83;1.92;;;7.30;1.00;;;;;;5117262;28;20042;-68
2023/03/16 09:14:55;;;;;;;5.72;2.47;;;7.00;1.00;;;;;;5118103;28;20035;-71
2023/03/16 09:17:27;;;;;;;3.10;1.85;;;7.20;1.00;;;;;;5114786;28;20520;-68
2023/03/16 09:20:01;;;;;;;3.53;1.70;;;7.40;1.00;;;;;;5131026;28;20065;-68
2023/03/16 09:22:36;;;;;;;3.67;1.90;;;7.30;1.00;;;;;;5115112;28;20284;-69
2023/03/16 09:25:10;;;;;;;2.33;1.38;;;7.30;1.00;;;;;;5110985;28;20039;-68
2023/03/16 09:27:43;;;;;;;4.97;1.50;;;7.90;1.00;;;;;;5109872;28;20500;-68
2023/03/16 09:30:15;;;;;;;2.53;1.70;;;8.50;1.00;;;;;;5114521;28;20043;-68
2023/03/16 09:32:47;;;;;;;3.72;1.77;;;8.50;1.00;;;;;;5132497;28;20055;-69
2023/03/16 09:35:21;;;;;;;4.93;2.10;;;8.30;1.00;;;;;;5132533;28;20059;-68
2023/03/16 09:37:56;;;;;;;3.03;1.58;;;8.50;1.00;;;;;;5133200;28;20051;-68
2023/03/16 09:40:29;;;;;;;3.65;1.70;;;8.00;1.00;;;;;;5113017;28;20054;-68
2023/03/16 09:43:26;;;;;;;3.28;1.55;;;7.60;1.00;;;;;;5131565;28;20043;-68
2023/03/16 09:46:24;;;;;;;1.48;1.20;;;7.60;1.00;;;;;;5132280;28;20046;-68
2023/03/16 09:48:59;;;;;;;1.63;1.33;;;8.20;1.00;;;;;;5132663;28;20043;-68
2023/03/16 09:51:57;;;;;;;1.83;1.40;;;9.20;1.00;;;;;;5131163;28;20046;-68
2023/03/16 09:55:11;;;;;;;2.05;1.40;;;8.50;1.00;;;;;;5128834;28;20065;-67
2023/03/16 09:57:46;;;;;;;2.05;1.65;;;8.80;1.00;;;;;;5121706;28;20050;-68
2023/03/16 10:00:32;;;;;;;3.95;1.55;;;9.80;1.00;;;;;;5098098;28;20039;-69
2023/03/16 10:03:27;;;;;;;3.17;1.60;;;9.90;1.00;;;;;;5112240;28;20031;-67
2023/03/16 10:06:05;;;;;;;1.73;1.35;;;10.20;1.00;;;;;;5106592;28;20058;-67
2023/03/16 10:08:57;;;;;;;2.67;1.05;;;10.60;1.00;;;;;;5108746;29;20043;-68
2023/03/16 10:11:32;;;;;;;1.88;1.20;;;10.60;1.00;;;;;;5091491;29;20069;-67
2023/03/16 10:14:40;;;;;;;1.77;1.58;;;9.70;1.00;;;;;;5110471;29;20043;-67
2023/03/16 10:18:15;;;;;;;2.80;1.73;;;10.60;1.00;;;;;;5102178;29;20036;-68
2023/03/16 10:20:50;;;;;;;1.52;1.42;;;11.00;1.00;;;;;;5057335;29;20047;-68
2023/03/16 10:23:28;;;;;;;1.75;1.38;;;10.40;1.00;;;;;;5060964;29;20043;-68
2023/03/16 10:26:11;;;;;;;2.17;1.50;;;9.80;1.00;;;;;;5072256;29;20058;-68
2023/03/16 10:28:44;;;;;;;5.07;2.00;;;9.70;1.00;;;;;;5074682;29;20071;-68
2023/03/16 10:31:21;;;;;;;2.65;1.30;;;9.60;1.00;;;;;;5060844;29;20048;-68
2023/03/16 10:34:05;;;;;;;1.23;1.10;;;10.80;1.00;;;;;;5066797;29;20048;-68
2023/03/16 10:36:41;;;;;;;2.88;1.60;;;10.90;1.00;;;;;;5080531;29;20040;-68
2023/03/16 10:39:15;;;;;;;1.90;1.35;;;11.70;1.00;;;;;;5074583;29;20191;-68
2023/03/16 10:41:56;;;;;;;1.70;1.60;;;12.20;1.00;;;;;;5072751;29;20043;-68
2023/03/16 10:44:32;;;;;;;4.43;1.30;;;12.70;1.00;;;;;;5089755;29;20043;-68
2023/03/16 10:47:16;;;;;;;1.75;0.98;;;12.90;1.00;;;;;;5086215;29;20086;-68
2023/03/16 10:49:50;;;;;;;4.37;2.00;;;13.80;1.00;;;;;;5057938;29;20044;-68
2023/03/16 10:52:54;;;;;;;3.70;1.58;;;14.30;1.00;;;;;;5072799;29;20274;-68
2023/03/16 10:55:33;;;;;;;2.22;1.80;;;14.40;1.00;;;;;;5087525;29;20039;-67
2023/03/16 10:58:08;;;;;;;2.03;1.70;;;15.10;1.00;;;;;;5110733;29;20036;-67
2023/03/16 11:00:45;;;;;;;1.77;1.67;;;14.00;1.00;;;;;;5092559;29;20058;-67
2023/03/16 11:03:24;;;;;;;3.65;1.42;;;14.40;1.00;;;;;;5110417;28;20348;-67
2023/03/16 11:06:02;;;;;;;3.15;1.58;;;14.70;1.00;;;;;;5119611;28;20057;-67
2023/03/16 11:08:40;;;;;;;3.85;1.42;;;14.80;1.00;;;;;;5131864;28;20035;-67
2023/03/16 11:11:29;;;;;;;2.78;1.65;;;15.60;1.00;;;;;;5130790;28;20058;-67
2023/03/16 11:14:08;;;;;;;1.85;1.52;;;15.50;1.00;;;;;;5146766;28;20636;-67
2023/03/16 11:16:55;;;;;;;2.67;1.63;;;14.00;1.00;;;;;;5128090;28;20035;-68
2023/03/16 11:19:35;;;;;;;4.47;1.65;;;15.10;1.00;;;;;;5145806;28;20042;-68
2023/03/16 11:22:20;;;;;;;1.73;1.33;;;16.10;1.00;;;;;;5130304;28;20050;-68
2023/03/16 11:25:29;;;;;;;3.47;1.30;;;16.60;1.00;;;;;;5108930;28;20534;-68
2023/03/16 11:28:15;;;;;;;2.90;1.40;;;16.80;1.00;;;;;;5129873;28;20039;-67
2023/03/16 11:31:16;;;;;;;2.85;1.40;;;17.10;1.00;;;;;;5127624;28;20108;-67
2023/03/16 11:33:54;;;;;;;3.95;1.60;;;16.40;1.00;;;;;;5113051;28;20051;-67
2023/03/16 11:37:08;;;;;;;2.95;1.50;;;15.70;1.00;;;;;;5127540;28;20042;-67
2023/03/16 11:40:25;;;;;;;2.20;1.45;;;15.90;1.00;;;;;;5124460;28;20130;-67
2023/03/16 11:43:51;;;;;;;1.85;1.20;;;17.20;1.00;;;;;;5095781;29;20074;-67
2023/03/16 11:46:30;;;;;;;3.45;1.50;;;17.90;1.60;;;;;;5109620;29;20031;-67
2023/03/16 11:49:35;;;;;;;3.92;1.30;;;17.00;1.00;;;;;;5104700;28;20275;-67
2023/03/16 11:52:30;;;;;;;;;;;17.50;1.20;;;;;;5126389;28;20031;-68
2023/03/16 11:55:20;;;;;;;1.90;1.52;;;16.70;1.00;;;;;;5108935;28;20353;-68
2023/03/16 11:58:28;;;;;;;3.67;1.70;;;16.30;1.00;;;;;;5119892;28;20053;-67
2023/03/16 12:01:14;;;;;;;2.63;1.58;;;16.90;1.00;;;;;;5139975;28;20050;-68
2023/03/16 12:04:00;;;;;;;1.85;1.75;;;16.10;1.00;;;;;;5130147;28;20050;-69
2023/03/16 12:07:12;;;;;;;1.95;1.65;;;16.50;1.00;;;;;;5119875;28;20076;-67
2023/03/16 12:10:19;;;;;;;1.50;1.40;;;18.10;1.00;;;;;;5142316;28;20058;-67
2023/03/16 12:13:17;;;;;;;2.15;1.67;;;18.90;1.00;;;;;;5130064;28;20247;-67
2023/03/16 12:15:58;;;;;;;2.25;1.92;;;18.30;1.00;;;;;;5111508;28;20240;-68
2023/03/16 12:18:52;;;;;;;1.40;1.30;;;18.30;1.00;;;;;;5113456;28;20053;-66
2023/03/16 12:21:37;;;;;;;2.33;1.80;;;19.50;1.00;;;;;;5125499;28;20046;-67
2023/03/16 12:24:21;;;;;;;3.30;1.50;;;17.50;1.00;;;;;;5125264;28;20043;-69
2023/03/16 12:26:53;;;;;;;1.67;1.58;;;18.40;1.00;;;;;;5119411;28;20035;-66
2023/03/16 12:29:54;;;;;;;3.60;1.85;;;18.50;1.00;;;;;;5112857;28;20045;-67
2023/03/16 12:32:52;;;;;;;2.03;1.70;;;18.90;1.00;;;;;;5113043;28;20683;-68
2023/03/16 12:35:51;;;;;;;2.83;2.00;;;18.80;1.00;;;;;;5124953;28;20047;-67
2023/03/16 12:38:55;;;;;;;4.97;1.95;;;17.90;1.00;;;;;;5111591;28;20050;-65
2023/03/16 12:42:33;;;;;;;3.75;2.10;;;16.10;1.00;;;;;;5111060;28;20035;-66
2023/03/16 12:45:41;;;;;;;2.10;1.90;;;16.30;1.00;;;;;;5125870;28;20564;-68
2023/03/16 12:48:28;;;;;;;3.42;2.00;;;18.10;1.00;;;;;;5126400;28;20038;-67
2023/03/16 12:51:02;;;;;;;1.92;1.73;;;19.40;1.00;;;;;;5127504;28;20050;-68
2023/03/16 12:53:54;;;;;;;2.88;1.83;;;19.10;1.00;;;;;;5143933;28;20327;-67
2023/03/16 12:56:36;;;;;;;1.80;1.52;;;19.40;1.00;;;;;;5138005;28;20052;-66
2023/03/16 12:59:18;;;;;;;3.22;2.03;;;19.30;1.00;;;;;;5111647;28;20042;-67
2023/03/16 13:02:06;;;;;;;2.05;1.63;;;19.90;1.00;;;;;;5105069;28;20607;-67
2023/03/16 13:04:47;;;;;;;1.95;1.80;;;20.20;1.00;;;;;;5122179;28;20061;-67
2023/03/16 13:07:25;;;;;;;4.32;1.95;;;17.60;1.00;;;;;;5111464;28;20045;-69
2023/03/16 13:10:09;;;;;;;2.17;1.70;;;17.40;1.00;;;;;;5129230;28;20630;-69
2023/03/16 13:12:41;;;;;;;2.13;1.92;;;16.60;1.00;;;;;;5111148;28;20043;-69
2023/03/16 13:15:20;;;;;;;2.55;1.92;;;16.10;1.00;;;;;;5119038;28;20054;-67
2023/03/16 13:18:21;;;;;;;2.78;1.92;;;15.80;1.00;;;;;;5115040;28;20069;-68
2023/03/16 13:21:00;;;;;;;2.80;2.00;;;17.50;1.00;;;;;;5134229;28;20556;-70
2023/03/16 13:24:20;;;;;;;2.00;1.80;;;19.10;1.00;;;;;;5114496;28;20266;-71
2023/03/16 13:26:57;;;;;;;2.15;1.92;;;16.80;1.00;;;;;;5130448;28;20042;-69
2023/03/16 13:29:35;;;;;;;3.05;2.10;;;16.80;1.00;;;;;;5130642;28;20057;-68
2023/03/16 13:32:18;;;;;;;2.70;1.90;;;17.40;1.00;;;;;;5110212;28;20054;-69
2023/03/16 13:34:55;;;;;;;5.18;2.25;;;18.20;1.00;;;;;;5146457;28;20035;-69
2023/03/16 13:37:31;;;;;;;3.35;2.20;;;18.40;1.00;;;;;;5115026;28;20086;-68
2023/03/16 13:40:03;;;;;;;2.47;2.20;;;19.20;1.00;;;;;;5121363;28;20375;-67
2023/03/16 13:42:37;;;;;;;2.88;1.92;;;19.40;1.00;;;;;;5131210;28;20332;-67
2023/03/16 13:45:26;;;;;;;4.05;2.38;;;18.70;1.00;;;;;;5129566;28;20049;-68
2023/03/16 13:48:04;;;;;;;5.30;2.42;;;18.70;1.00;;;;;;5146963;28;20046;-69
2023/03/16 13:50:42;;;;;;;3.53;2.08;;;17.10;1.00;;;;;;5126904;28;20047;-72
2023/03/16 13:53:32;;;;;;;2.80;1.95;;;17.50;1.00;;;;;;5129862;28;20043;-67
2023/03/16 13:56:04;;;;;;;2.47;1.98;;;16.70;1.00;;;;;;5110211;28;20037;-69
2023/03/16 13:58:38;;;;;;;3.13;2.40;;;16.70;1.00;;;;;;5144480;28;20227;-69
2023/03/16 14:01:31;;;;;;;3.03;2.10;;;17.50;1.00;;;;;;5120580;28;20051;-68
2023/03/16 14:04:12;;;;;;;3.15;1.98;;;18.70;1.00;;;;;;5098314;28;20035;-69